KBFI/BFI METAR and TAF weather

Enter ICAO airport designator
Station Type Date Time Source
KBFI METAR 2021/07/28 19:53 UTC NOAA

KBFI 281953Z 33005KT 10SM BKN200 25/11 A3011 RMK AO2 SLP195 T02500111


Station Type Date Time Source
KBFI Decoded METAR 2021/07/28 19:53 UTC NOAA

SEATTLE BOEING FIELD, WA, United States (KBFI) 47-33N 122-19W 4M
Jul 28, 2021 - 03:53 PM EDT / 2021.07.28 1953 UTC
Wind: from the NNW (330 degrees) at 6 MPH (5 KT):0
Visibility: 10 mile(s):0
Sky conditions: mostly cloudy
Temperature: 77.0 F (25.0 C)
Dew Point: 52.0 F (11.1 C)
Relative Humidity: 41%
Pressure (altimeter): 30.11 in. Hg (1019 hPa)
ob: KBFI 281953Z 33005KT 10SM BKN200 25/11 A3011 RMK AO2 SLP195 T02500111
cycle: 20

Station Type Date Time Source
KBFI TAF 2021/07/28 18:36 UTC NOAA

TAF KBFI 281733Z 2818/2918 32007KT P6SM SCT250
FM290600 VRB03KT P6SM SCT250

Example: see airport list